Time;durP1;ratioP1;P1;durP2;ratioP2;P2;SDS_P1;SDS_P2;PMS_P1;PMS_P2;Temp;Humidity;BMP_temperature;BMP_pressure;BME280_temperature;BME280_humidity;BME280_pressure;Samples;Min_cycle;Max_cycle;Signal;HPM_P1;HPM_P2
2023/01/28 00:00:40;;;;;;;10.17;8.47;;;;;;;5.81;100.00;101120.50;2103839;28;20569;-59
2023/01/28 00:01:40;;;;;;;9.27;8.27;;;;;;;5.27;100.00;101043.69;2104625;28;20212;-59
2023/01/28 00:02:41;;;;;;;10.30;8.43;;;;;;;4.70;100.00;100957.50;2097667;28;20195;-59
2023/01/28 00:03:42;;;;;;;9.77;8.53;;;;;;;5.58;100.00;101111.75;2100389;28;20213;-59
2023/01/28 00:04:43;;;;;;;10.07;8.25;;;;;;;5.77;100.00;101122.44;2096780;28;20183;-59
2023/01/28 00:05:44;;;;;;;9.45;7.85;;;;;;;5.81;100.00;101124.06;2102118;28;20237;-59
2023/01/28 00:06:44;;;;;;;9.33;7.83;;;;;;;5.79;100.00;101122.84;2100167;28;20189;-59
2023/01/28 00:07:48;;;;;;;8.90;7.50;;;;;;;5.79;100.00;101131.88;2100889;28;20288;-59
2023/01/28 00:08:48;;;;;;;9.23;7.72;;;;;;;5.77;100.00;101130.69;2096526;28;20637;-58
2023/01/28 00:09:49;;;;;;;9.63;7.90;;;;;;;5.76;100.00;101121.66;2096496;28;20565;-59
2023/01/28 00:10:49;;;;;;;9.67;7.83;;;;;;;5.73;100.00;101136.16;2094907;28;20673;-60
2023/01/28 00:11:50;;;;;;;8.70;7.33;;;;;;;5.70;100.00;101122.41;2099880;28;20613;-59
2023/01/28 00:12:50;;;;;;;9.57;7.97;;;;;;;5.69;100.00;101140.09;2095202;28;20205;-59
2023/01/28 00:13:53;;;;;;;9.43;7.50;;;;;;;5.66;100.00;101133.41;2097433;28;20190;-59
2023/01/28 00:14:53;;;;;;;8.80;7.70;;;;;;;5.64;100.00;101138.47;2096069;28;20698;-58
2023/01/28 00:15:58;;;;;;;8.67;7.67;;;;;;;5.57;100.00;101130.22;2100319;28;20581;-59
2023/01/28 00:16:59;;;;;;;8.50;7.30;;;;;;;5.65;100.00;101142.81;2089633;28;20225;-59
2023/01/28 00:17:59;;;;;;;8.60;7.70;;;;;;;5.60;100.00;101140.44;2091839;28;20182;-60
2023/01/28 00:19:00;;;;;;;9.60;8.23;;;;;;;5.57;100.00;101143.97;2099580;28;20749;-59
2023/01/28 00:20:00;;;;;;;9.10;7.50;;;;;;;5.61;100.00;101146.72;2088723;28;20269;-59
2023/01/28 00:21:06;;;;;;;9.77;8.13;;;;;;;5.58;100.00;101148.28;2087902;28;20176;-59
2023/01/28 00:22:07;;;;;;;8.85;7.75;;;;;;;5.58;100.00;101144.72;2093243;28;20170;-59
2023/01/28 00:23:07;;;;;;;9.50;7.53;;;;;;;5.56;100.00;101147.09;2096598;28;20653;-59
2023/01/28 00:24:08;;;;;;;9.30;7.87;;;;;;;5.36;100.00;101123.81;2104234;28;20675;-59
2023/01/28 00:25:08;;;;;;;11.03;8.40;;;;;;;5.49;100.00;101144.31;2099709;28;20179;-59
2023/01/28 00:26:12;;;;;;;9.00;7.90;;;;;;;5.50;100.00;101143.94;2097812;28;20191;-59
2023/01/28 00:27:12;;;;;;;9.60;8.30;;;;;;;5.50;100.00;101145.88;2098987;28;20213;-59
2023/01/28 00:28:13;;;;;;;9.73;8.73;;;;;;;5.52;100.00;101151.78;2099916;28;20192;-59
2023/01/28 00:29:13;;;;;;;9.20;8.20;;;;;;;5.51;100.00;101158.47;2099641;28;20178;-59
2023/01/28 00:30:13;;;;;;;10.20;8.53;;;;;;;5.49;100.00;101161.59;2096024;28;20175;-59
2023/01/28 00:31:17;;;;;;;9.40;8.40;;;;;;;5.49;100.00;101161.59;2100784;28;20186;-59
2023/01/28 00:32:17;;;;;;;9.48;8.25;;;;;;;5.46;100.00;101159.63;2101229;28;20187;-59
2023/01/28 00:33:18;;;;;;;10.50;8.60;;;;;;;5.44;100.00;101161.94;2096566;28;20271;-59
2023/01/28 00:34:18;;;;;;;9.37;8.03;;;;;;;5.46;100.00;101158.81;2097577;28;20188;-59
2023/01/28 00:35:19;;;;;;;9.73;8.47;;;;;;;5.47;100.00;101160.41;2097192;28;20226;-59
2023/01/28 00:36:21;;;;;;;10.23;8.50;;;;;;;5.50;100.00;101159.63;2100081;28;20229;-59
2023/01/28 00:37:21;;;;;;;9.35;8.32;;;;;;;5.49;100.00;101164.34;2099703;28;20675;-59
2023/01/28 00:38:22;;;;;;;9.93;8.40;;;;;;;5.49;100.00;101167.09;2100315;28;24566;-59
2023/01/28 00:39:26;;;;;;;9.20;8.10;;;;;;;4.53;100.00;101018.59;2100724;28;20191;-59
2023/01/28 00:40:26;;;;;;;9.68;8.43;;;;;;;5.53;100.00;101165.16;2096799;28;20665;-59
2023/01/28 00:41:28;;;;;;;9.40;8.40;;;;;;;5.54;100.00;101165.94;2092790;28;20649;-59
2023/01/28 00:42:29;;;;;;;10.00;8.50;;;;;;;5.58;100.00;101161.22;2085477;28;20188;-59
2023/01/28 00:43:29;;;;;;;11.00;8.90;;;;;;;5.58;100.00;101158.47;2098113;28;20237;-59
2023/01/28 00:44:29;;;;;;;9.37;8.07;;;;;;;5.64;100.00;101162.47;2099395;28;20665;-59
2023/01/28 00:45:30;;;;;;;9.07;8.07;;;;;;;5.65;100.00;101158.53;2103663;28;20570;-58
2023/01/28 00:46:30;;;;;;;9.13;7.83;;;;;;;5.66;100.00;101158.16;2100359;28;20266;-59
2023/01/28 00:47:31;;;;;;;10.13;8.47;;;;;;;5.64;100.00;101160.47;2098534;28;20236;-59
2023/01/28 00:48:39;;;;;;;9.53;8.30;;;;;;;5.65;100.00;101166.78;2098749;28;20658;-59
2023/01/28 00:49:39;;;;;;;9.85;7.82;;;;;;;5.51;100.00;101150.22;2099346;28;20174;-59
2023/01/28 00:50:40;;;;;;;9.80;8.37;;;;;;;5.60;100.00;101161.66;2097211;28;20182;-59
2023/01/28 00:51:41;;;;;;;9.37;8.17;;;;;;;5.59;100.00;101162.81;2094703;28;20257;-59
2023/01/28 00:52:41;;;;;;;8.33;7.33;;;;;;;5.37;100.00;101128.94;2095250;28;20263;-59
2023/01/28 00:53:42;;;;;;;8.90;7.93;;;;;;;5.62;100.00;101173.84;2100623;28;20233;-59
2023/01/28 00:54:43;;;;;;;10.38;8.15;;;;;;;5.57;100.00;101182.44;2101456;28;20568;-59
2023/01/28 00:55:43;;;;;;;9.47;8.43;;;;;;;5.61;100.00;101171.47;2096912;28;20457;-59
2023/01/28 00:56:43;;;;;;;9.87;8.20;;;;;;;5.58;100.00;101173.03;2095879;28;20179;-59
2023/01/28 00:57:44;;;;;;;9.33;8.30;;;;;;;5.57;100.00;101182.44;2096770;28;20258;-59
2023/01/28 00:58:45;;;;;;;9.37;8.07;;;;;;;5.55;100.00;101179.28;2103146;28;20781;-59
2023/01/28 00:59:45;;;;;;;9.97;8.43;;;;;;;5.53;100.00;101183.63;2088861;28;20330;-59
2023/01/28 01:00:46;;;;;;;8.97;8.07;;;;;;;4.85;100.00;101081.91;2089379;28;20185;-59
2023/01/28 01:01:46;;;;;;;9.47;8.27;;;;;;;5.54;100.00;101188.72;2102563;28;20212;-59
2023/01/28 01:02:46;;;;;;;9.37;8.37;;;;;;;5.56;100.00;101185.59;2100921;28;20175;-59
2023/01/28 01:03:56;;;;;;;8.93;8.00;;;;;;;5.56;100.00;101189.13;2097317;28;20187;-59
2023/01/28 01:05:00;;;;;;;8.93;7.97;;;;;;;5.57;100.00;101182.44;2099401;28;20216;-59
2023/01/28 01:06:00;;;;;;;8.95;7.97;;;;;;;5.53;100.00;101178.13;2103046;28;20206;-59
2023/01/28 01:07:00;;;;;;;8.73;7.83;;;;;;;5.60;100.00;101183.66;2101733;28;20167;-59
2023/01/28 01:08:01;;;;;;;9.80;8.20;;;;;;;5.57;100.00;101182.44;2097937;28;20234;-59
2023/01/28 01:09:07;;;;;;;9.17;7.80;;;;;;;5.40;100.00;101152.91;2102274;28;20236;-59
2023/01/28 01:10:11;;;;;;;8.70;7.38;;;;;;;5.62;100.00;101182.09;2104453;28;20937;-59
2023/01/28 01:11:11;;;;;;;8.90;7.55;;;;;;;5.65;100.00;101178.56;2094423;28;20234;-59
2023/01/28 01:12:11;;;;;;;9.83;7.90;;;;;;;5.66;100.00;101173.84;2098911;28;20184;-59
2023/01/28 01:13:12;;;;;;;9.03;8.00;;;;;;;5.63;100.00;101175.41;2101506;28;20205;-59
2023/01/28 01:14:12;;;;;;;8.43;7.40;;;;;;;5.62;100.00;101173.03;2100803;28;20222;-59
2023/01/28 01:15:13;;;;;;;9.73;7.73;;;;;;;5.63;100.00;101180.91;2096813;28;20192;-59
2023/01/28 01:16:17;;;;;;;8.30;7.40;;;;;;;5.64;100.00;101173.47;2102237;28;20266;-59
2023/01/28 01:17:19;;;;;;;9.40;7.43;;;;;;;5.53;100.00;101154.16;2104224;28;20182;-59
2023/01/28 01:18:19;;;;;;;8.65;7.43;;;;;;;5.53;100.00;101139.63;2102977;28;20211;-59
2023/01/28 01:19:19;;;;;;;8.33;7.50;;;;;;;5.69;100.00;101173.88;2099131;28;20177;-59
2023/01/28 01:20:22;;;;;;;9.77;7.67;;;;;;;5.15;100.00;101088.78;2097572;28;20199;-59
2023/01/28 01:21:25;;;;;;;8.63;7.72;;;;;;;5.70;100.00;101174.66;2102102;28;20278;-59
2023/01/28 01:22:26;;;;;;;9.43;8.00;;;;;;;5.68;100.00;101174.25;2101099;28;20661;-59
2023/01/28 01:23:28;;;;;;;9.00;8.07;;;;;;;5.70;100.00;101182.91;2098148;28;20572;-59
2023/01/28 01:24:32;;;;;;;9.70;7.50;;;;;;;5.73;100.00;101182.91;2097997;28;20545;-59
2023/01/28 01:25:33;;;;;;;8.70;7.78;;;;;;;5.55;100.00;101165.53;2102064;28;20198;-59
2023/01/28 01:26:33;;;;;;;10.17;8.00;;;;;;;5.63;100.00;101193.84;2101713;28;20182;-59
2023/01/28 01:27:34;;;;;;;10.07;8.00;;;;;;;5.44;100.00;101172.94;2097053;28;20583;-59
2023/01/28 01:28:35;;;;;;;9.73;7.87;;;;;;;5.60;100.00;101187.16;2096801;28;20184;-59
2023/01/28 01:29:35;;;;;;;8.45;7.55;;;;;;;5.58;100.00;101191.47;2102332;28;20200;-59
2023/01/28 01:30:36;;;;;;;9.30;7.53;;;;;;;5.61;100.00;101191.50;2102975;28;20187;-59
2023/01/28 01:31:36;;;;;;;9.10;6.67;;;;;;;5.62;100.00;101189.53;2098304;28;20220;-59
2023/01/28 01:32:37;;;;;;;9.63;7.27;;;;;;;5.58;100.00;101191.47;2098228;28;20565;-59
2023/01/28 01:33:38;;;;;;;8.37;7.53;;;;;;;5.60;100.00;101195.41;2102871;28;20196;-59
2023/01/28 01:34:39;;;;;;;9.40;7.10;;;;;;;5.56;100.00;101193.81;2097624;28;20202;-59
2023/01/28 01:35:39;;;;;;;8.30;7.40;;;;;;;5.48;100.00;101184.75;2100989;28;20703;-59
2023/01/28 01:36:42;;;;;;;8.87;7.70;;;;;;;5.41;100.00;101176.47;2099254;28;20189;-59
2023/01/28 01:37:43;;;;;;;8.68;7.65;;;;;;;5.54;100.00;101207.19;2097261;28;20180;-59
2023/01/28 01:38:44;;;;;;;9.40;7.50;;;;;;;5.55;100.00;101198.53;2102026;28;20179;-59
2023/01/28 01:39:44;;;;;;;10.07;7.77;;;;;;;5.56;100.00;101193.81;2101598;28;20266;-59
2023/01/28 01:40:45;;;;;;;8.87;7.40;;;;;;;5.54;100.00;101196.97;2098001;28;20676;-59
2023/01/28 01:41:45;;;;;;;8.50;7.40;;;;;;;5.52;100.00;101196.56;2098473;28;20187;-59
2023/01/28 01:42:46;;;;;;;9.07;7.40;;;;;;;5.52;100.00;101191.06;2095130;28;20269;-59
2023/01/28 01:43:59;;;;;;;8.10;7.20;;;;;;;5.25;100.00;101154.00;2096084;28;20229;-59
2023/01/28 01:45:12;;;;;;;8.43;7.25;;;;;;;5.56;100.00;101194.63;2097576;28;20611;-59
2023/01/28 01:46:14;;;;;;;9.00;7.53;;;;;;;5.56;100.00;101194.63;2096184;28;20191;-59
2023/01/28 01:47:17;;;;;;;8.32;6.93;;;;;;;5.54;100.00;101193.44;2090911;28;20181;-59
2023/01/28 01:48:27;;;;;;;9.02;7.95;;;;;;;5.55;100.00;101195.78;2101131;28;20695;-59
2023/01/28 01:49:27;;;;;;;8.40;7.18;;;;;;;5.58;100.00;101194.22;2099220;28;21671;-59
2023/01/28 01:50:51;;;;;;;8.10;7.30;;;;;;;5.58;100.00;101197.78;2098805;28;20183;-59
2023/01/28 01:52:02;;;;;;;8.38;7.15;;;;;;;5.52;100.00;101191.06;2094333;28;20260;-59
2023/01/28 01:53:17;;;;;;;8.80;7.63;;;;;;;5.49;100.00;101197.31;2096859;28;20176;-59
2023/01/28 01:54:19;;;;;;;9.93;7.40;;;;;;;5.48;100.00;101187.50;2104303;28;20203;-59
2023/01/28 01:55:23;;;;;;;9.65;7.78;;;;;;;5.51;100.00;101192.25;2101736;28;20275;-59
2023/01/28 01:56:29;;;;;;;8.88;7.80;;;;;;;5.51;100.00;101197.75;2102605;28;20190;-59
2023/01/28 01:57:32;;;;;;;9.48;7.60;;;;;;;5.52;100.00;101191.06;2097756;28;20187;-59
2023/01/28 01:58:36;;;;;;;8.70;7.22;;;;;;;5.48;100.00;101193.00;2097013;28;20210;-59
2023/01/28 01:59:41;;;;;;;7.78;6.85;;;;;;;5.47;100.00;101196.13;2100521;28;20274;-59
2023/01/28 02:00:42;;;;;;;7.80;6.90;;;;;;;5.14;100.00;101144.13;2097702;28;20275;-59
2023/01/28 02:01:44;;;;;;;9.60;7.80;;;;;;;4.77;100.00;101092.06;2101891;28;20253;-59
2023/01/28 02:02:47;;;;;;;7.07;5.78;;;;;;;5.01;100.00;101126.34;2104416;28;20550;-59
2023/01/28 02:04:02;;;;;;;8.93;7.18;;;;;;;5.45;100.00;101193.00;2095457;28;20663;-59
2023/01/28 02:05:03;;;;;;;6.80;5.95;;;;;;;5.48;100.00;101190.25;2087881;28;20214;-59
2023/01/28 02:06:03;;;;;;;7.22;6.10;;;;;;;5.48;100.00;101195.75;2087989;28;20211;-60
2023/01/28 02:07:05;;;;;;;8.17;7.27;;;;;;;5.43;100.00;101198.84;2100351;28;20195;-59
2023/01/28 02:08:21;;;;;;;8.02;7.00;;;;;;;5.47;100.00;101202.44;2102045;28;20215;-59
2023/01/28 02:09:25;;;;;;;7.90;6.47;;;;;;;5.46;100.00;101205.56;2101374;28;20186;-59
2023/01/28 02:10:26;;;;;;;7.90;6.60;;;;;;;5.42;100.00;101202.78;2094024;28;20226;-59
2023/01/28 02:11:30;;;;;;;7.47;6.37;;;;;;;5.29;100.00;101187.00;2099557;28;20192;-59
2023/01/28 02:12:36;;;;;;;7.10;5.85;;;;;;;5.39;100.00;101200.78;2099025;28;20270;-58
2023/01/28 02:13:49;;;;;;;7.13;5.95;;;;;;;5.35;100.00;101200.00;2100853;28;20704;-59
2023/01/28 02:14:57;;;;;;;6.40;5.30;;;;;;;4.93;100.00;101139.25;2094494;28;20327;-59
2023/01/28 02:15:59;;;;;;;6.53;5.68;;;;;;;5.40;100.00;101207.88;2101004;28;20234;-59
2023/01/28 02:17:01;;;;;;;6.85;5.68;;;;;;;5.40;100.00;101216.13;2100452;28;20253;-59
2023/01/28 02:18:01;;;;;;;6.90;6.20;;;;;;;5.40;100.00;101204.34;2098002;28;20634;-59
2023/01/28 02:19:02;;;;;;;7.63;6.10;;;;;;;5.37;100.00;101210.59;2102073;28;20551;-59
2023/01/28 02:20:04;;;;;;;7.40;5.83;;;;;;;5.35;100.00;101204.69;2090816;28;20268;-59
2023/01/28 02:21:46;;;;;;;6.60;5.80;;;;;;;5.31;100.00;101206.63;2093881;28;20702;-59
2023/01/28 02:23:20;;;;;;;8.73;6.03;;;;;;;5.25;100.00;101208.16;2068960;28;20213;-59
2023/01/28 02:24:35;;;;;;;6.63;5.60;;;;;;;5.25;100.00;101210.91;2088950;28;20180;-59
2023/01/28 02:25:47;;;;;;;5.70;4.93;;;;;;;5.21;100.00;101210.91;2090603;28;20251;-59
2023/01/28 02:27:22;;;;;;;7.35;5.13;;;;;;;5.21;100.00;101202.66;2096946;28;20199;-59
2023/01/28 02:28:46;;;;;;;5.55;4.63;;;;;;;5.16;100.00;101208.50;2100319;28;20630;-59
2023/01/28 02:29:58;;;;;;;6.00;5.07;;;;;;;5.15;100.00;101208.88;2094968;28;20278;-59
2023/01/28 02:31:20;;;;;;;6.55;5.35;;;;;;;5.14;100.00;101205.31;2100837;28;20195;-59
2023/01/28 02:32:41;;;;;;;6.28;5.38;;;;;;;5.11;100.00;101206.09;2098201;28;20198;-59
2023/01/28 02:34:17;;;;;;;6.35;5.15;;;;;;;5.11;100.00;101203.34;2096208;28;20205;-59
2023/01/28 02:35:27;;;;;;;5.28;4.60;;;;;;;4.77;100.00;101163.47;2087024;28;20203;-59
2023/01/28 02:36:46;;;;;;;6.55;5.53;;;;;;;4.80;100.00;101170.94;2100770;28;20207;-59
2023/01/28 02:37:50;;;;;;;6.03;4.70;;;;;;;5.05;100.00;101207.63;2095847;28;20551;-59
2023/01/28 02:38:53;;;;;;;5.25;3.80;;;;;;;5.00;100.00;101204.44;2104597;28;20191;-58
2023/01/28 02:39:58;;;;;;;4.50;3.90;;;;;;;4.56;100.00;101135.06;2100685;28;20187;-59
2023/01/28 02:41:12;;;;;;;4.50;3.60;;;;;;;4.97;100.00;101205.22;2097779;28;20236;-59
2023/01/28 02:42:22;;;;;;;4.30;3.88;;;;;;;4.99;100.00;101205.63;2098220;28;20171;-59
2023/01/28 02:43:49;;;;;;;4.65;3.90;;;;;;;5.01;100.00;101200.53;2103530;28;20655;-59
2023/01/28 02:44:49;;;;;;;4.70;3.75;;;;;;;5.04;100.00;101195.06;2094633;28;20439;-59
2023/01/28 02:48:32;;;;;;;5.40;4.47;;;;;;;4.98;100.00;101202.06;2096948;28;20649;-59
2023/01/28 02:49:45;;;;;;;5.77;4.73;;;;;;;4.97;100.00;101206.00;2097377;28;20633;-58
2023/01/28 02:51:19;;;;;;;5.32;4.40;;;;;;;4.95;100.00;101204.78;2099468;28;20191;-58
2023/01/28 02:54:16;;;;;;;4.90;3.50;;;;;;;4.93;100.00;101207.16;2098590;28;20175;-58
2023/01/28 02:55:39;;;;;;;5.47;3.78;;;;;;;4.87;100.00;101214.16;2103998;28;20163;-59
2023/01/28 02:57:09;;;;;;;5.15;3.80;;;;;;;4.88;100.00;101213.75;2097120;28;20274;-58
2023/01/28 02:58:48;;;;;;;4.70;4.10;;;;;;;4.88;100.00;101202.78;2086244;28;20829;-59
2023/01/28 03:00:17;;;;;;;4.97;3.97;;;;;;;4.88;100.00;101208.25;2095233;28;20657;-59
2023/01/28 03:01:41;;;;;;;4.82;3.80;;;;;;;4.88;100.00;101207.50;2101045;28;20178;-58
2023/01/28 03:02:56;;;;;;;3.55;3.20;;;;;;;4.84;100.00;101215.72;2101155;28;20181;-59
2023/01/28 03:04:05;;;;;;;4.13;3.45;;;;;;;4.83;100.00;101211.34;2098722;28;20176;-59
2023/01/28 03:05:21;;;;;;;4.32;3.58;;;;;;;4.83;100.00;101208.63;2096192;28;20164;-59
2023/01/28 03:06:29;;;;;;;4.75;3.85;;;;;;;4.80;100.00;101212.13;2101230;28;20190;-59
2023/01/28 03:07:33;;;;;;;3.85;3.40;;;;;;;4.55;100.00;101182.88;2103400;28;20202;-60
2023/01/28 03:10:06;;;;;;;4.93;3.88;;;;;;;4.39;100.00;101152.13;2097998;28;20196;-59
2023/01/28 03:37:49;;;;;;;5.75;3.97;;;;;;;4.79;100.00;101218.81;2101224;28;20318;-59
2023/01/28 03:38:49;;;;;;;4.70;3.80;;;;;;;4.78;100.00;101221.91;2100385;28;20190;-59
2023/01/28 03:39:50;;;;;;;4.63;4.13;;;;;;;4.78;100.00;101221.91;2098244;28;20270;-59
2023/01/28 03:40:57;;;;;;;4.00;3.60;;;;;;;4.28;100.00;101151.25;2101623;28;20184;-59
2023/01/28 03:42:06;;;;;;;5.20;4.00;;;;;;;4.79;100.00;101221.53;2096844;28;20183;-59
2023/01/28 03:43:07;;;;;;;4.38;3.85;;;;;;;4.78;100.00;101221.91;2094737;28;20180;-59
2023/01/28 03:45:27;;;;;;;4.65;4.10;;;;;;;4.81;100.00;101235.69;2091846;28;20179;-59
2023/01/28 03:46:27;;;;;;;5.33;3.90;;;;;;;4.78;100.00;101236.41;2103617;28;20649;-59
2023/01/28 03:47:29;;;;;;;4.40;3.97;;;;;;;4.83;100.00;101229.81;2101594;28;20179;-59
2023/01/28 03:48:30;;;;;;;4.60;4.10;;;;;;;4.80;100.00;101233.31;2101124;28;20668;-59
2023/01/28 03:49:30;;;;;;;4.50;3.97;;;;;;;4.81;100.00;101240.38;2088334;28;20265;-59
2023/01/28 03:50:30;;;;;;;4.90;4.13;;;;;;;4.76;100.00;101224.22;2085757;28;20218;-59
2023/01/28 03:51:31;;;;;;;4.67;3.97;;;;;;;4.82;100.00;101239.22;2091745;28;20182;-59
2023/01/28 03:52:32;;;;;;;4.70;3.80;;;;;;;4.67;100.00;101221.03;2095015;28;20187;-58
2023/01/28 03:53:32;;;;;;;4.65;4.15;;;;;;;4.56;100.00;101203.69;2099904;28;20243;-59
2023/01/28 03:54:33;;;;;;;5.20;4.27;;;;;;;4.20;100.00;101149.63;2096902;28;20264;-59
2023/01/28 03:55:33;;;;;;;5.37;4.23;;;;;;;4.75;100.00;101233.66;2104885;28;20249;-59
2023/01/28 03:56:38;;;;;;;4.43;3.87;;;;;;;4.76;100.00;101235.22;2103830;28;20265;-59
2023/01/28 03:57:39;;;;;;;6.50;4.20;;;;;;;4.74;100.00;101232.06;2100555;28;20647;-59
2023/01/28 03:58:51;;;;;;;4.27;3.87;;;;;;;4.73;100.00;101234.03;2094843;28;20668;-59
2023/01/28 03:59:52;;;;;;;4.85;4.10;;;;;;;4.72;100.00;101237.94;2095004;28;20406;-59
2023/01/28 04:00:53;;;;;;;4.80;4.10;;;;;;;4.68;100.00;101241.81;2097758;28;20285;-59
2023/01/28 04:01:54;;;;;;;4.70;4.17;;;;;;;4.66;100.00;101241.44;2096867;28;20190;-59
2023/01/28 04:02:54;;;;;;;4.80;4.03;;;;;;;4.65;100.00;101240.63;2103401;28;20288;-59
2023/01/28 04:03:55;;;;;;;5.27;4.50;;;;;;;4.67;100.00;101243.00;2102689;28;20540;-59
2023/01/28 04:04:57;;;;;;;5.20;4.30;;;;;;;4.66;100.00;101236.72;2101297;28;20201;-59
2023/01/28 04:05:59;;;;;;;5.68;4.72;;;;;;;4.70;100.00;101244.97;2098342;28;20314;-59
2023/01/28 04:07:00;;;;;;;5.10;4.07;;;;;;;4.69;100.00;101237.91;2096008;28;20564;-59
2023/01/28 04:08:00;;;;;;;4.93;4.20;;;;;;;4.65;100.00;101251.59;2096068;28;20298;-59
2023/01/28 04:09:00;;;;;;;4.40;3.87;;;;;;;4.62;100.00;101244.09;2103527;28;20190;-58
2023/01/28 04:10:01;;;;;;;5.10;4.40;;;;;;;4.45;100.00;101216.47;2103926;28;20211;-59
2023/01/28 04:11:14;;;;;;;4.73;4.23;;;;;;;4.61;100.00;101253.53;2097118;28;20182;-59
2023/01/28 04:12:15;;;;;;;5.65;4.97;;;;;;;4.56;100.00;101253.84;2094816;28;20255;-59
2023/01/28 04:13:15;;;;;;;4.70;4.20;;;;;;;4.45;100.00;101236.50;2101649;28;20232;-59
2023/01/28 04:14:17;;;;;;;5.10;4.60;;;;;;;4.50;100.00;101249.88;2097081;28;20566;-59
2023/01/28 04:15:17;;;;;;;5.28;4.50;;;;;;;4.31;100.00;101213.59;2095757;28;20236;-59
2023/01/28 04:16:19;;;;;;;5.03;4.53;;;;;;;4.02;100.00;101171.38;2098312;28;20215;-59
2023/01/28 04:17:19;;;;;;;5.53;4.57;;;;;;;4.51;100.00;101254.19;2096782;28;21494;-59
2023/01/28 04:18:26;;;;;;;5.33;4.37;;;;;;;4.52;100.00;101255.00;2102812;28;20324;-59
2023/01/28 04:19:27;;;;;;;5.60;4.63;;;;;;;4.51;100.00;101261.66;2100345;28;20752;-59
2023/01/28 04:20:28;;;;;;;6.03;4.80;;;;;;;4.02;100.00;101182.34;2089587;28;20205;-59
2023/01/28 04:21:28;;;;;;;7.90;4.87;;;;;;;4.51;100.00;101251.44;2090798;28;20677;-59
2023/01/28 04:22:29;;;;;;;5.47;4.60;;;;;;;4.51;100.00;101256.16;2100274;28;20174;-59
2023/01/28 04:23:29;;;;;;;6.97;4.90;;;;;;;4.09;100.00;101196.13;2098093;28;20204;-59
2023/01/28 04:24:30;;;;;;;4.97;4.30;;;;;;;4.47;100.00;101264.34;2097283;28;20264;-59
2023/01/28 04:25:31;;;;;;;6.50;5.10;;;;;;;4.43;100.00;101269.03;2100608;28;20185;-59
2023/01/28 04:26:31;;;;;;;5.95;4.82;;;;;;;4.43;100.00;101269.03;2100120;28;20254;-59
2023/01/28 04:27:32;;;;;;;5.13;4.63;;;;;;;4.32;100.00;101259.09;2100686;28;20183;-59
2023/01/28 04:28:32;;;;;;;5.13;4.63;;;;;;;4.43;100.00;101271.78;2094422;28;20212;-59
2023/01/28 04:29:32;;;;;;;6.43;4.73;;;;;;;4.44;100.00;101267.84;2099097;28;20223;-59
2023/01/28 04:30:33;;;;;;;5.40;4.80;;;;;;;4.44;100.00;101269.78;2095257;28;20224;-59
2023/01/28 04:31:34;;;;;;;5.30;4.80;;;;;;;4.43;100.00;101279.19;2098964;28;20617;-59
2023/01/28 04:32:34;;;;;;;5.20;4.57;;;;;;;4.45;100.00;101269.44;2100691;28;20184;-59
2023/01/28 04:33:34;;;;;;;6.13;5.00;;;;;;;3.54;100.00;101125.75;2101643;28;20642;-59
2023/01/28 04:34:35;;;;;;;5.30;4.57;;;;;;;4.49;100.00;101270.25;2100975;28;20187;-58
2023/01/28 04:35:35;;;;;;;5.73;4.83;;;;;;;4.19;100.00;101233.84;2093134;28;20196;-59
2023/01/28 04:36:36;;;;;;;6.03;4.77;;;;;;;4.52;100.00;101271.47;2096549;28;20181;-59
2023/01/28 04:37:37;;;;;;;5.10;4.60;;;;;;;4.53;100.00;101270.28;2096754;28;20206;-59
2023/01/28 04:38:37;;;;;;;5.47;4.70;;;;;;;4.53;100.00;101278.53;2102004;28;20205;-59
2023/01/28 04:39:38;;;;;;;5.50;4.90;;;;;;;4.53;100.00;101275.78;2101615;28;20672;-59
2023/01/28 04:40:38;;;;;;;5.73;4.93;;;;;;;4.52;100.00;101283.22;2100383;28;20617;-59
2023/01/28 04:41:38;;;;;;;5.67;4.57;;;;;;;4.53;100.00;101286.75;2098732;28;20311;-59
2023/01/28 04:42:39;;;;;;;5.90;5.30;;;;;;;4.52;100.00;101274.97;2098556;28;20178;-59
2023/01/28 04:43:40;;;;;;;5.33;4.83;;;;;;;4.56;100.00;101283.28;2098364;28;20219;-59
2023/01/28 04:44:40;;;;;;;5.00;4.50;;;;;;;4.55;100.00;101279.72;2103905;28;20736;-59
2023/01/28 04:45:40;;;;;;;5.13;4.63;;;;;;;4.30;100.00;101240.25;2104543;28;20190;-59
2023/01/28 04:46:41;;;;;;;5.33;4.80;;;;;;;4.64;100.00;101284.91;2097744;28;20197;-58
2023/01/28 04:47:41;;;;;;;5.40;4.90;;;;;;;4.64;100.00;101291.22;2100219;28;20219;-59
2023/01/28 04:48:42;;;;;;;5.00;4.50;;;;;;;4.67;100.00;101287.69;2101891;28;20190;-59
2023/01/28 04:49:42;;;;;;;5.57;4.97;;;;;;;4.49;100.00;101261.22;2100605;28;20273;-59
2023/01/28 04:50:44;;;;;;;5.13;4.63;;;;;;;4.67;100.00;101293.19;2100774;28;20192;-59
2023/01/28 04:51:44;;;;;;;5.82;4.85;;;;;;;4.71;100.00;101301.47;2098185;28;20185;-59
2023/01/28 04:52:45;;;;;;;5.40;4.60;;;;;;;4.75;100.00;101294.84;2104236;28;20679;-61
2023/01/28 04:53:45;;;;;;;5.23;4.70;;;;;;;4.71;100.00;101288.53;2096822;28;20194;-59
2023/01/28 04:54:46;;;;;;;5.47;4.97;;;;;;;4.76;100.00;101298.38;2101824;28;20190;-59
2023/01/28 04:55:46;;;;;;;5.40;4.80;;;;;;;4.76;100.00;101296.44;2101318;28;20185;-59
2023/01/28 04:56:46;;;;;;;6.10;5.03;;;;;;;4.68;100.00;101277.50;2101443;28;20171;-59
2023/01/28 04:57:50;;;;;;;5.50;4.77;;;;;;;4.79;100.00;101305.88;2101857;28;20174;-59
2023/01/28 04:58:50;;;;;;;5.60;5.00;;;;;;;4.77;100.00;101314.47;2100187;28;20187;-59
2023/01/28 04:59:50;;;;;;;6.40;5.10;;;;;;;4.78;100.00;101299.56;2102101;28;20181;-58
2023/01/28 05:00:55;;;;;;;5.43;4.60;;;;;;;4.83;100.00;101306.69;2102958;28;20200;-59
2023/01/28 05:01:56;;;;;;;5.43;4.90;;;;;;;4.03;100.00;101189.41;2102722;28;20365;-59
2023/01/28 05:03:02;;;;;;;5.57;4.80;;;;;;;4.39;100.00;101231.72;2105379;28;20184;-59
2023/01/28 05:04:04;;;;;;;5.55;4.82;;;;;;;4.80;100.00;101300.00;2098981;28;20229;-59
2023/01/28 05:05:07;;;;;;;5.80;5.20;;;;;;;4.82;100.00;101297.66;2098076;28;20737;-58
2023/01/28 05:06:09;;;;;;;6.20;5.05;;;;;;;4.80;100.00;101297.25;2095395;28;20659;-59
2023/01/28 05:07:09;;;;;;;5.85;5.25;;;;;;;4.82;100.00;101296.88;2100495;28;20249;-59
2023/01/28 05:08:10;;;;;;;6.80;5.10;;;;;;;4.82;100.00;101305.13;2101687;28;20255;-59
2023/01/28 05:09:10;;;;;;;5.83;5.20;;;;;;;4.84;100.00;101302.78;2102031;28;20631;-59
2023/01/28 05:10:11;;;;;;;6.10;5.50;;;;;;;4.88;100.00;101306.34;2100351;28;20596;-59
2023/01/28 05:11:12;;;;;;;6.27;5.67;;;;;;;4.89;100.00;101305.19;2101875;28;20174;-58
2023/01/28 05:12:12;;;;;;;6.05;5.45;;;;;;;4.87;100.00;101308.31;2102215;28;20625;-59
2023/01/28 05:13:13;;;;;;;6.23;5.10;;;;;;;4.88;100.00;101300.88;2100064;28;20179;-59
2023/01/28 05:14:13;;;;;;;5.80;5.20;;;;;;;4.89;100.00;101302.44;2100016;28;20228;-59
2023/01/28 05:15:18;;;;;;;6.10;5.50;;;;;;;4.36;100.00;101216.03;2103095;28;20185;-59
2023/01/28 05:16:19;;;;;;;6.18;5.57;;;;;;;4.90;100.00;101310.31;2097755;28;20209;-59
2023/01/28 05:17:19;;;;;;;5.90;5.30;;;;;;;4.91;100.00;101309.13;2098099;28;20191;-59
2023/01/28 05:18:20;;;;;;;6.07;5.47;;;;;;;4.72;100.00;101295.59;2094650;28;20184;-59
2023/01/28 05:19:20;;;;;;;6.50;5.80;;;;;;;4.88;100.00;101322.84;2103538;28;20271;-59
2023/01/28 05:20:21;;;;;;;6.63;5.60;;;;;;;4.83;100.00;101303.94;2099658;28;20182;-58
2023/01/28 05:21:21;;;;;;;6.57;5.97;;;;;;;4.83;100.00;101309.44;2098684;28;21378;-59
2023/01/28 05:22:40;;;;;;;6.83;6.07;;;;;;;4.68;100.00;101297.53;2102701;28;20271;-59
2023/01/28 05:23:40;;;;;;;6.85;5.72;;;;;;;3.74;100.00;101140.88;2102260;28;20254;-59
2023/01/28 05:24:40;;;;;;;7.53;6.73;;;;;;;4.87;100.00;101316.53;2102393;28;20178;-59
2023/01/28 05:25:41;;;;;;;6.70;6.03;;;;;;;4.53;100.00;101267.56;2098151;28;20250;-59
2023/01/28 05:26:41;;;;;;;7.80;6.37;;;;;;;4.89;100.00;101318.91;2097626;28;20187;-59
2023/01/28 05:27:42;;;;;;;7.10;6.37;;;;;;;4.91;100.00;101325.63;2098214;28;20275;-59
2023/01/28 05:28:42;;;;;;;7.17;5.77;;;;;;;4.93;100.00;101319.75;2099837;28;20317;-59
2023/01/28 05:29:42;;;;;;;6.70;6.00;;;;;;;4.70;100.00;101283.41;2098172;28;20245;-58
2023/01/28 05:30:43;;;;;;;6.97;6.27;;;;;;;4.50;100.00;101246.34;2097415;28;20176;-58